Time;durP1;ratioP1;P1;durP2;ratioP2;P2;SDS_P1;SDS_P2;PMS_P1;PMS_P2;Temp;Humidity;BMP_temperature;BMP_pressure;BME280_temperature;BME280_humidity;BME280_pressure;Samples;Min_cycle;Max_cycle;Signal;HPM_P1;HPM_P2
2021/06/28 00:01:36;;;;;;;0.00;0.00;;;19.00;73.60;18.40;101412.00;;;;5023133;28;20026;-77
2021/06/28 00:04:03;;;;;;;0.00;0.00;;;19.00;72.20;18.30;101399.00;;;;5025746;28;20056;-77
2021/06/28 00:06:29;;;;;;;0.00;0.00;;;19.00;71.90;18.30;101393.00;;;;5024441;28;20038;-76
2021/06/28 00:08:56;;;;;;;0.00;0.00;;;19.00;71.90;18.20;101393.00;;;;5025712;28;20307;-77
2021/06/28 00:11:23;;;;;;;0.00;0.00;;;18.90;73.10;18.10;101398.00;;;;5025083;28;20076;-77
2021/06/28 00:13:49;;;;;;;0.00;0.00;;;18.90;71.60;18.10;101401.00;;;;5024475;28;20053;-77
2021/06/28 00:16:16;;;;;;;0.00;0.00;;;18.80;72.70;18.10;101399.00;;;;5022939;28;20041;-77
2021/06/28 00:18:42;;;;;;;0.00;0.00;;;18.80;72.60;18.10;101396.00;;;;5023667;28;20056;-77
2021/06/28 00:21:09;;;;;;;0.00;0.00;;;18.80;74.00;18.10;101390.00;;;;5023871;28;20099;-77
2021/06/28 00:23:35;;;;;;;0.00;0.00;;;18.80;74.60;18.10;101387.00;;;;5027507;28;20067;-77
2021/06/28 00:26:03;;;;;;;0.00;0.00;;;18.80;74.00;18.10;101384.00;;;;5006535;28;20124;-78
2021/06/28 00:28:30;;;;;;;0.00;0.00;;;18.80;73.10;18.10;101385.00;;;;5025965;28;20053;-77
2021/06/28 00:30:57;;;;;;;;;;;18.80;72.70;18.10;101385.00;;;;5025000;28;20060;-76
2021/06/28 00:33:23;;;;;;;0.00;0.00;;;18.80;73.70;18.10;101373.00;;;;5024215;28;19947;-76
2021/06/28 00:35:49;;;;;;;0.00;0.00;;;18.80;75.10;18.00;101358.00;;;;5024802;28;20084;-77
2021/06/28 00:38:16;;;;;;;0.00;0.00;;;18.70;75.50;18.00;101363.00;;;;5025022;28;20521;-76
2021/06/28 00:40:44;;;;;;;0.00;0.00;;;18.70;74.60;18.00;101350.00;;;;5024714;28;20106;-76
2021/06/28 00:43:10;;;;;;;0.00;0.00;;;18.70;72.80;18.00;101357.00;;;;5025287;28;20033;-77
2021/06/28 00:45:40;;;;;;;0.00;0.00;;;18.70;70.80;17.90;101337.00;;;;5006635;28;20046;-77
2021/06/28 00:48:10;;;;;;;0.00;0.00;;;18.70;75.00;17.90;101345.00;;;;5025321;28;20451;-77
2021/06/28 00:50:41;;;;;;;0.00;0.00;;;18.60;74.60;17.90;101335.00;;;;5039707;28;20069;-76
2021/06/28 00:53:12;;;;;;;0.00;0.00;;;18.60;73.20;18.00;101345.00;;;;5021909;28;20106;-76
2021/06/28 00:55:40;;;;;;;0.00;0.00;;;18.60;74.80;18.00;101334.00;;;;5023688;28;20055;-77
2021/06/28 00:58:07;;;;;;;0.00;0.00;;;18.60;74.00;18.00;101327.00;;;;5021490;28;20055;-77
2021/06/28 01:00:35;;;;;;;0.00;0.00;;;18.70;72.80;18.00;101336.00;;;;5036791;28;20041;-77
2021/06/28 01:03:01;;;;;;;0.00;0.00;;;18.60;73.80;18.00;101338.00;;;;5024595;28;20045;-77
2021/06/28 01:05:32;;;;;;;0.00;0.00;;;18.70;75.30;18.00;101337.00;;;;5022499;28;20049;-77
2021/06/28 01:08:02;;;;;;;0.00;0.00;;;18.60;74.80;18.00;101342.00;;;;5020649;28;20159;-76
2021/06/28 01:10:29;;;;;;;0.00;0.00;;;18.70;74.50;18.00;101348.00;;;;5020575;28;20041;-77
2021/06/28 01:12:56;;;;;;;0.00;0.00;;;18.60;74.60;18.00;101340.00;;;;5024075;28;20057;-77
2021/06/28 01:15:24;;;;;;;0.00;0.00;;;18.70;73.30;18.00;101332.00;;;;5019661;28;20181;-77
2021/06/28 01:17:51;;;;;;;0.00;0.00;;;18.60;74.80;17.90;101336.00;;;;5019535;28;20729;-76
2021/06/28 01:20:27;;;;;;;0.00;0.00;;;18.60;74.20;18.00;101329.00;;;;5024665;28;20068;-76
2021/06/28 01:23:01;;;;;;;0.00;0.00;;;18.60;77.20;18.00;101325.00;;;;5014427;28;20052;-76
2021/06/28 01:25:30;;;;;;;0.00;0.00;;;18.60;73.40;18.00;101324.00;;;;5023054;28;20065;-76
2021/06/28 01:27:56;;;;;;;0.00;0.00;;;18.60;74.00;17.90;101328.00;;;;5022957;28;20042;-76
2021/06/28 01:30:29;;;;;;;0.00;0.00;;;18.60;74.70;17.90;101326.00;;;;5024353;28;20099;-77
2021/06/28 01:32:56;;;;;;;0.00;0.00;;;18.60;75.20;17.90;101326.00;;;;5023077;28;20048;-76
2021/06/28 01:35:22;;;;;;;0.00;0.00;;;18.60;74.80;17.90;101315.00;;;;5007109;28;20567;-77
2021/06/28 01:37:48;;;;;;;0.00;0.00;;;18.60;75.70;17.90;101321.00;;;;5021583;28;20049;-76
2021/06/28 01:40:16;;;;;;;0.03;0.00;;;18.60;75.80;17.90;101327.00;;;;5005598;28;20378;-77
2021/06/28 01:42:44;;;;;;;0.10;0.10;;;18.50;78.60;17.90;101337.00;;;;5025720;28;20114;-77
2021/06/28 01:45:15;;;;;;;0.00;0.00;;;18.50;77.30;17.90;101334.00;;;;5020837;28;20060;-76
2021/06/28 01:47:43;;;;;;;0.00;0.00;;;18.50;75.40;17.90;101332.00;;;;5022202;28;20054;-76
2021/06/28 01:50:12;;;;;;;0.00;0.00;;;18.50;76.00;17.80;101333.00;;;;5003565;28;20048;-76
2021/06/28 01:52:39;;;;;;;0.00;0.00;;;18.50;76.40;17.90;101339.00;;;;5038340;28;20041;-76
2021/06/28 01:55:11;;;;;;;0.00;0.00;;;18.50;76.50;17.90;101343.00;;;;5020083;28;20025;-76
2021/06/28 01:57:56;;;;;;;0.00;0.00;;;18.50;76.40;17.80;101344.00;;;;5023947;28;20112;-77
2021/06/28 02:00:35;;;;;;;0.35;0.10;;;18.50;75.40;17.80;101335.00;;;;5019000;28;20136;-76
2021/06/28 02:03:12;;;;;;;0.00;0.00;;;18.40;73.80;17.80;101340.00;;;;5021862;28;20479;-76
2021/06/28 02:05:52;;;;;;;0.00;0.00;;;18.40;77.20;17.80;101338.00;;;;5006086;28;20660;-75
2021/06/28 02:08:21;;;;;;;0.00;0.00;;;18.40;76.80;17.70;101339.00;;;;5021448;28;20061;-76
2021/06/28 02:10:52;;;;;;;0.00;0.00;;;18.40;77.00;17.70;101334.00;;;;5021952;28;20175;-75
2021/06/28 02:13:22;;;;;;;0.00;0.00;;;18.40;77.40;17.70;101343.00;;;;5020668;28;20056;-75
2021/06/28 02:15:49;;;;;;;0.17;0.10;;;18.40;80.10;17.80;101339.00;;;;5022013;28;20492;-76
2021/06/28 02:18:15;;;;;;;0.00;0.00;;;18.40;78.20;17.80;101334.00;;;;5023255;28;20033;-76
2021/06/28 02:20:42;;;;;;;0.00;0.00;;;18.40;75.80;17.80;101333.00;;;;5021244;28;20072;-76
2021/06/28 02:23:20;;;;;;;0.30;0.03;;;18.40;72.10;17.80;101330.00;;;;5024452;28;20056;-76
2021/06/28 02:25:47;;;;;;;;;;;18.40;73.10;17.70;101336.00;;;;5026158;28;20045;-76
2021/06/28 02:28:13;;;;;;;0.90;0.28;;;18.40;76.50;17.70;101341.00;;;;5037473;28;19978;-76
2021/06/28 02:30:39;;;;;;;0.00;0.00;;;18.40;75.50;17.70;101341.00;;;;5019746;28;20046;-76
2021/06/28 02:33:05;;;;;;;0.00;0.00;;;18.40;75.20;17.70;101330.00;;;;5020321;28;20043;-76
2021/06/28 02:35:31;;;;;;;0.00;0.00;;;18.40;76.70;17.70;101342.00;;;;5025569;28;20044;-76
2021/06/28 02:37:57;;;;;;;0.00;0.00;;;18.40;76.20;17.70;101333.00;;;;5020218;28;20772;-76
2021/06/28 02:40:23;;;;;;;0.00;0.00;;;18.40;77.70;17.70;101331.00;;;;5021982;28;20045;-76
2021/06/28 02:42:49;;;;;;;0.00;0.00;;;18.40;76.90;17.70;101340.00;;;;5021958;28;20133;-77
2021/06/28 02:45:15;;;;;;;0.00;0.00;;;18.40;77.70;17.70;101346.00;;;;5022214;28;20140;-77
2021/06/28 02:47:41;;;;;;;0.10;0.05;;;18.40;77.80;17.70;101347.00;;;;5024202;28;20087;-77
2021/06/28 02:50:11;;;;;;;0.00;0.00;;;18.40;77.10;17.70;101359.00;;;;5020643;28;20068;-76
2021/06/28 02:52:38;;;;;;;0.00;0.00;;;18.30;76.70;17.70;101342.00;;;;5021006;28;20042;-77
2021/06/28 02:55:06;;;;;;;0.00;0.00;;;18.40;73.40;17.60;101352.00;;;;5021726;28;20439;-77
2021/06/28 02:57:33;;;;;;;0.00;0.00;;;18.30;76.80;17.60;101345.00;;;;5021155;28;20056;-77
2021/06/28 03:00:00;;;;;;;0.00;0.00;;;18.30;76.60;17.60;101348.00;;;;5022338;28;20033;-77
2021/06/28 03:02:26;;;;;;;0.00;0.00;;;18.30;75.20;17.60;101351.00;;;;5020865;28;20057;-77
2021/06/28 03:04:52;;;;;;;0.00;0.00;;;18.30;74.30;17.50;101350.00;;;;5022579;28;20060;-77
2021/06/28 03:07:19;;;;;;;0.00;0.00;;;18.30;78.90;17.60;101352.00;;;;5023688;28;20053;-76
2021/06/28 03:09:45;;;;;;;0.00;0.00;;;18.30;77.90;17.60;101357.00;;;;5022266;28;20033;-77
2021/06/28 03:12:12;;;;;;;0.00;0.00;;;18.20;77.80;17.60;101356.00;;;;5021751;28;20501;-77
2021/06/28 03:14:40;;;;;;;0.00;0.00;;;18.30;77.30;17.60;101357.00;;;;5001181;28;20045;-77
2021/06/28 03:17:06;;;;;;;0.00;0.00;;;18.30;77.60;17.60;101365.00;;;;5003323;28;20038;-77
2021/06/28 03:19:32;;;;;;;0.00;0.00;;;18.30;77.00;17.60;101364.00;;;;5038419;28;20049;-77
2021/06/28 03:21:58;;;;;;;0.00;0.00;;;18.30;77.30;17.60;101362.00;;;;5023775;28;20038;-77
2021/06/28 03:24:24;;;;;;;0.00;0.00;;;18.30;78.10;17.60;101355.00;;;;5034268;28;20492;-77
2021/06/28 03:26:50;;;;;;;0.00;0.00;;;18.30;77.60;17.60;101347.00;;;;5023905;28;20412;-77
2021/06/28 03:29:16;;;;;;;0.00;0.00;;;18.30;77.70;17.60;101350.00;;;;5026227;28;20060;-77
2021/06/28 03:31:42;;;;;;;0.00;0.00;;;18.30;76.70;17.60;101337.00;;;;5026296;28;20053;-77
2021/06/28 03:34:07;;;;;;;0.00;0.00;;;18.30;77.00;17.60;101340.00;;;;5043063;28;20049;-77
2021/06/28 03:36:33;;;;;;;0.00;0.00;;;18.20;76.90;17.60;101343.00;;;;5027222;28;20045;-77
2021/06/28 03:38:59;;;;;;;0.10;0.00;;;18.20;77.40;17.50;101338.00;;;;5023517;28;20053;-77
2021/06/28 03:41:25;;;;;;;0.00;0.00;;;18.20;77.00;17.50;101348.00;;;;5028170;28;20125;-77
2021/06/28 03:43:51;;;;;;;0.00;0.00;;;18.20;77.60;17.50;101355.00;;;;5029026;28;20728;-77
2021/06/28 03:46:17;;;;;;;0.00;0.00;;;18.20;77.40;17.50;101351.00;;;;5026771;28;20454;-78
2021/06/28 03:48:43;;;;;;;0.00;0.00;;;18.20;76.80;17.50;101344.00;;;;5028483;28;20045;-77
2021/06/28 03:51:09;;;;;;;0.00;0.00;;;18.20;76.20;17.50;101347.00;;;;5012345;28;20049;-75
2021/06/28 03:53:35;;;;;;;0.00;0.00;;;18.20;76.80;17.50;101347.00;;;;5024688;28;20057;-74
2021/06/28 03:56:06;;;;;;;0.00;0.00;;;18.20;77.00;17.40;101349.00;;;;5023494;28;20102;-74
2021/06/28 03:58:35;;;;;;;0.00;0.00;;;18.20;77.50;17.50;101355.00;;;;5041852;28;20134;-75
2021/06/28 04:01:04;;;;;;;0.00;0.00;;;18.10;77.50;17.50;101349.00;;;;5009697;28;20069;-74
2021/06/28 04:03:32;;;;;;;0.00;0.00;;;18.20;77.20;17.50;101347.00;;;;4997805;28;20087;-75
2021/06/28 04:06:02;;;;;;;0.00;0.00;;;18.20;77.40;17.50;101337.00;;;;5023337;28;20400;-75
2021/06/28 04:08:29;;;;;;;0.00;0.00;;;18.20;77.70;17.50;101336.00;;;;5023943;28;20099;-75
2021/06/28 04:10:55;;;;;;;0.00;0.00;;;18.20;77.80;17.50;101334.00;;;;5027272;28;20029;-75
2021/06/28 04:13:21;;;;;;;0.00;0.00;;;18.10;77.20;17.50;101342.00;;;;5026519;28;20485;-74
2021/06/28 04:15:47;;;;;;;0.00;0.00;;;18.20;78.70;17.50;101347.00;;;;5025278;28;20045;-74
2021/06/28 04:18:13;;;;;;;0.00;0.00;;;18.20;78.10;17.60;101345.00;;;;5024659;28;20451;-75
2021/06/28 04:20:40;;;;;;;0.00;0.00;;;18.20;78.10;17.60;101351.00;;;;5040650;28;20776;-75
2021/06/28 04:23:07;;;;;;;0.00;0.00;;;18.20;77.30;17.60;101351.00;;;;5027559;28;20132;-75
2021/06/28 04:25:33;;;;;;;0.00;0.00;;;18.20;77.80;17.60;101346.00;;;;5024487;28;20051;-75
2021/06/28 04:27:59;;;;;;;0.50;0.10;;;18.20;78.60;17.60;101343.00;;;;5026686;28;20056;-75
2021/06/28 04:30:25;;;;;;;0.00;0.00;;;18.30;79.10;17.60;101338.00;;;;5022424;28;20497;-75
2021/06/28 04:32:52;;;;;;;0.00;0.00;;;18.30;79.70;17.60;101330.00;;;;5024977;28;20052;-75
2021/06/28 04:35:25;;;;;;;0.00;0.00;;;18.30;78.50;17.70;101339.00;;;;5024671;28;20041;-74
2021/06/28 04:37:53;;;;;;;0.00;0.00;;;18.30;82.60;17.70;101339.00;;;;5028189;28;20400;-74
2021/06/28 04:40:24;;;;;;;0.00;0.00;;;18.30;78.90;17.80;101334.00;;;;5024864;28;20619;-74
2021/06/28 04:42:50;;;;;;;0.00;0.00;;;18.30;76.70;17.80;101338.00;;;;5023112;28;20052;-74
2021/06/28 04:45:19;;;;;;;0.00;0.00;;;18.40;76.20;17.90;101331.00;;;;5026578;28;20520;-75
2021/06/28 04:47:46;;;;;;;0.00;0.00;;;18.40;78.60;18.00;101341.00;;;;5021717;28;20048;-75
2021/06/28 04:50:14;;;;;;;0.00;0.00;;;18.50;77.40;18.00;101342.00;;;;5024672;28;20038;-75
2021/06/28 04:52:41;;;;;;;0.00;0.00;;;18.50;77.20;18.10;101340.00;;;;5030578;28;20037;-75
2021/06/28 04:55:10;;;;;;;;;;;18.60;78.50;18.20;101345.00;;;;5028047;28;20041;-74
2021/06/28 04:57:36;;;;;;;0.05;0.00;;;18.70;80.50;18.30;101341.00;;;;5023676;28;19974;-75
2021/06/28 05:00:07;;;;;;;0.00;0.00;;;18.80;78.00;18.40;101343.00;;;;5042027;28;20077;-75
2021/06/28 05:02:33;;;;;;;0.00;0.00;;;18.90;78.00;18.60;101346.00;;;;5021558;28;20203;-73
2021/06/28 05:04:59;;;;;;;0.00;0.00;;;19.00;77.80;18.70;101351.00;;;;5022965;28;20041;-75
2021/06/28 05:07:25;;;;;;;0.00;0.00;;;19.10;79.30;18.80;101357.00;;;;5008649;28;20048;-74
2021/06/28 05:09:51;;;;;;;0.05;0.05;;;19.20;78.10;18.90;101357.00;;;;5023844;28;20378;-74
2021/06/28 05:12:17;;;;;;;0.00;0.00;;;19.30;78.30;19.00;101350.00;;;;5028143;28;20115;-75
2021/06/28 05:14:44;;;;;;;0.00;0.00;;;19.40;77.40;19.10;101340.00;;;;5022490;28;20087;-75
2021/06/28 05:17:11;;;;;;;0.00;0.00;;;19.50;76.60;19.20;101332.00;;;;5024400;28;20511;-75
2021/06/28 05:19:37;;;;;;;0.00;0.00;;;19.60;76.20;19.30;101344.00;;;;5026937;28;20033;-73
2021/06/28 05:22:03;;;;;;;0.00;0.00;;;19.80;76.80;19.40;101338.00;;;;5027867;28;20187;-74
2021/06/28 05:24:30;;;;;;;0.00;0.00;;;19.80;76.00;19.40;101331.00;;;;5022970;28;20039;-74
2021/06/28 05:26:56;;;;;;;0.00;0.00;;;19.80;75.20;19.40;101333.00;;;;5022368;28;21510;-74
2021/06/28 05:29:22;;;;;;;0.00;0.00;;;19.90;75.90;19.50;101327.00;;;;5026801;28;20041;-74
2021/06/28 05:31:48;;;;;;;0.00;0.00;;;19.90;74.90;19.60;101335.00;;;;5022439;28;20140;-74
2021/06/28 05:34:14;;;;;;;0.00;0.00;;;20.00;76.50;19.70;101336.00;;;;5022572;28;20751;-75
2021/06/28 05:36:40;;;;;;;0.00;0.00;;;20.10;75.80;19.80;101336.00;;;;5024877;28;20381;-75
2021/06/28 05:39:06;;;;;;;0.00;0.00;;;20.10;75.50;19.90;101331.00;;;;5024937;28;20045;-75
2021/06/28 05:41:33;;;;;;;0.00;0.00;;;20.30;76.90;20.00;101327.00;;;;5024459;28;20599;-75
2021/06/28 05:43:59;;;;;;;0.00;0.00;;;20.30;77.60;20.10;101335.00;;;;5022595;28;20045;-76
2021/06/28 05:46:25;;;;;;;0.00;0.00;;;20.50;77.40;20.10;101328.00;;;;5027156;28;20488;-75
2021/06/28 05:48:51;;;;;;;0.00;0.00;;;20.50;75.10;20.20;101329.00;;;;5024962;28;20403;-75
2021/06/28 05:51:19;;;;;;;0.00;0.00;;;20.60;76.60;20.30;101340.00;;;;5018854;28;20045;-75
2021/06/28 05:53:47;;;;;;;0.00;0.00;;;20.70;77.20;20.40;101323.00;;;;5005767;28;20057;-74
2021/06/28 05:56:13;;;;;;;0.13;0.13;;;20.70;76.40;20.50;101330.00;;;;5023070;28;20041;-74
2021/06/28 05:58:39;;;;;;;0.00;0.00;;;20.80;73.50;20.60;101324.00;;;;5044219;28;20041;-75
2021/06/28 06:01:06;;;;;;;0.00;0.00;;;20.90;75.90;20.70;101324.00;;;;5021855;28;20045;-73
2021/06/28 06:03:33;;;;;;;0.10;0.05;;;21.00;74.80;20.80;101317.00;;;;5024700;28;20052;-74
2021/06/28 06:06:00;;;;;;;0.00;0.00;;;21.10;75.20;20.80;101320.00;;;;5022998;28;20231;-75
2021/06/28 06:08:26;;;;;;;0.00;0.00;;;21.20;74.20;20.90;101327.00;;;;5023965;28;20048;-74
2021/06/28 06:10:55;;;;;;;0.00;0.00;;;21.20;76.20;21.10;101326.00;;;;5025975;28;20110;-75
2021/06/28 06:13:22;;;;;;;0.00;0.00;;;21.40;75.40;21.20;101325.00;;;;5019919;28;20033;-75
2021/06/28 06:15:49;;;;;;;0.00;0.00;;;21.50;75.10;21.30;101326.00;;;;5024729;28;20045;-75
2021/06/28 06:18:15;;;;;;;0.00;0.00;;;21.60;74.80;21.50;101326.00;;;;5020287;28;20069;-75
2021/06/28 06:20:43;;;;;;;0.00;0.00;;;21.70;74.10;21.60;101325.00;;;;5019184;28;20080;-75
2021/06/28 06:23:11;;;;;;;0.00;0.00;;;21.90;73.70;21.70;101344.00;;;;5026164;28;20703;-75
2021/06/28 06:25:39;;;;;;;0.00;0.00;;;21.90;74.10;21.80;101326.00;;;;5025170;28;20073;-75
2021/06/28 06:28:06;;;;;;;0.00;0.00;;;22.00;73.90;21.90;101331.00;;;;5019777;28;20045;-74
2021/06/28 06:30:33;;;;;;;0.00;0.00;;;22.20;73.90;22.00;101331.00;;;;5021277;28;20103;-74
2021/06/28 06:33:00;;;;;;;0.00;0.00;;;22.20;73.70;22.10;101325.00;;;;5025043;28;20103;-75
2021/06/28 06:35:27;;;;;;;0.15;0.15;;;22.30;73.70;22.20;101324.00;;;;5025535;28;20037;-75
2021/06/28 06:37:56;;;;;;;0.00;0.00;;;22.40;73.20;22.30;101314.00;;;;5025643;28;20053;-74
2021/06/28 06:40:23;;;;;;;0.35;0.25;;;22.50;73.70;22.40;101313.00;;;;5022619;28;20560;-75
2021/06/28 06:42:50;;;;;;;0.05;0.05;;;22.60;73.20;22.50;101309.00;;;;5022935;28;20099;-74
2021/06/28 06:45:16;;;;;;;0.00;0.00;;;22.70;73.10;22.50;101313.00;;;;5005029;28;21340;-73
2021/06/28 06:47:42;;;;;;;0.00;0.00;;;22.70;72.90;22.60;101314.00;;;;5024148;28;20081;-75
2021/06/28 06:50:11;;;;;;;0.57;0.20;;;22.90;73.00;22.70;101313.00;;;;5020994;28;20049;-74
2021/06/28 06:52:38;;;;;;;0.00;0.00;;;22.90;73.00;22.80;101309.00;;;;5022258;28;20125;-74
2021/06/28 06:55:10;;;;;;;0.00;0.00;;;23.00;71.30;22.70;101310.00;;;;5021966;28;20055;-74
2021/06/28 06:57:37;;;;;;;0.13;0.10;;;23.00;71.30;22.80;101314.00;;;;5023897;28;20037;-75
2021/06/28 07:00:10;;;;;;;0.00;0.00;;;23.00;72.40;22.80;101318.00;;;;5021009;28;20061;-73
2021/06/28 07:02:36;;;;;;;0.00;0.00;;;23.10;72.00;22.90;101315.00;;;;5023864;28;20041;-72
2021/06/28 07:05:03;;;;;;;0.00;0.00;;;23.20;72.30;23.00;101324.00;;;;5023866;28;20128;-74
2021/06/28 07:07:29;;;;;;;0.00;0.00;;;23.20;71.80;23.00;101324.00;;;;5021473;28;20090;-75
2021/06/28 07:09:55;;;;;;;0.00;0.00;;;23.30;72.10;23.00;101329.00;;;;5022231;28;20045;-74
2021/06/28 07:12:22;;;;;;;0.00;0.00;;;23.30;72.00;23.10;101339.00;;;;5025131;28;20474;-74
2021/06/28 07:14:48;;;;;;;0.00;0.00;;;23.30;72.20;23.10;101344.00;;;;5023527;28;20041;-73
2021/06/28 07:17:14;;;;;;;0.00;0.00;;;23.40;71.80;23.20;101338.00;;;;5022190;28;20452;-75
2021/06/28 07:19:40;;;;;;;0.00;0.00;;;23.50;71.20;23.30;101344.00;;;;5021753;28;20053;-73
2021/06/28 07:22:06;;;;;;;0.33;0.00;;;23.50;71.20;23.40;101339.00;;;;5024196;28;20029;-74
2021/06/28 07:24:32;;;;;;;0.00;0.00;;;23.60;71.10;23.50;101337.00;;;;5025420;28;20042;-73
2021/06/28 07:26:58;;;;;;;0.00;0.00;;;23.70;72.20;23.60;101335.00;;;;5024740;28;20112;-73
2021/06/28 07:29:25;;;;;;;0.00;0.00;;;23.80;71.40;23.70;101349.00;;;;5028003;28;20041;-73
2021/06/28 07:31:51;;;;;;;0.00;0.00;;;23.90;71.10;23.80;101348.00;;;;5018074;28;20046;-73
2021/06/28 07:34:17;;;;;;;0.03;0.03;;;24.00;70.50;23.90;101346.00;;;;5022613;28;20033;-74
2021/06/28 07:36:43;;;;;;;0.00;0.00;;;24.10;70.60;24.00;101346.00;;;;5020637;28;20041;-73
2021/06/28 07:39:09;;;;;;;0.10;0.00;;;24.10;70.40;24.10;101349.00;;;;5025248;28;20460;-74
2021/06/28 07:41:35;;;;;;;0.00;0.00;;;24.30;70.20;24.20;101352.00;;;;5020047;28;20094;-73
2021/06/28 07:44:05;;;;;;;0.00;0.00;;;24.30;69.70;24.30;101359.00;;;;5038807;28;20054;-73
2021/06/28 07:46:32;;;;;;;0.00;0.00;;;24.40;70.10;24.40;101358.00;;;;5022791;28;20445;-74
2021/06/28 07:48:58;;;;;;;0.00;0.00;;;24.50;69.90;24.40;101359.00;;;;5022508;28;20099;-74
2021/06/28 07:51:24;;;;;;;0.00;0.00;;;24.50;70.20;24.40;101351.00;;;;5024421;28;20061;-74
2021/06/28 07:53:50;;;;;;;0.00;0.00;;;24.60;70.00;24.50;101359.00;;;;5021491;28;20115;-73
2021/06/28 07:56:19;;;;;;;0.17;0.10;;;24.70;70.10;24.60;101349.00;;;;5020493;28;20315;-72
2021/06/28 07:58:49;;;;;;;2.45;0.00;;;24.70;69.70;24.70;101359.00;;;;5022861;28;20053;-72
2021/06/28 08:01:16;;;;;;;0.00;0.00;;;24.90;69.30;24.80;101350.00;;;;5019456;28;20049;-73
2021/06/28 08:03:46;;;;;;;0.00;0.00;;;24.90;69.30;24.80;101356.00;;;;5018858;28;20050;-73
2021/06/28 08:06:18;;;;;;;0.00;0.00;;;25.20;68.90;24.90;101366.00;;;;5020113;28;20048;-74
2021/06/28 08:08:45;;;;;;;0.00;0.00;;;25.10;68.90;25.10;101352.00;;;;5023349;28;20057;-72
2021/06/28 08:11:13;;;;;;;0.00;0.00;;;25.20;68.90;25.20;101346.00;;;;5023940;28;20503;-73
2021/06/28 08:13:48;;;;;;;0.00;0.00;;;25.30;68.30;25.30;101355.00;;;;5028514;28;20048;-72
2021/06/28 08:16:16;;;;;;;0.20;0.20;;;25.40;68.30;25.40;101342.00;;;;5027512;28;20034;-73
2021/06/28 08:18:43;;;;;;;0.00;0.00;;;25.50;67.90;25.50;101334.00;;;;5026050;28;20136;-72
2021/06/28 08:21:11;;;;;;;0.00;0.00;;;25.60;67.80;25.60;101327.00;;;;5027308;28;20034;-73
2021/06/28 08:23:39;;;;;;;0.55;0.10;;;25.70;65.10;25.70;101329.00;;;;5010587;28;20140;-73
2021/06/28 08:26:05;;;;;;;;;;;25.80;67.10;25.80;101333.00;;;;5025696;28;20704;-74
2021/06/28 08:28:31;;;;;;;0.00;0.00;;;25.90;67.10;26.00;101340.00;;;;5042323;28;19925;-73
2021/06/28 08:30:57;;;;;;;0.00;0.00;;;26.00;67.40;26.00;101342.00;;;;5024572;28;20050;-73
2021/06/28 08:33:23;;;;;;;0.00;0.00;;;26.10;67.30;26.00;101345.00;;;;5024286;28;20052;-73
2021/06/28 08:35:49;;;;;;;0.00;0.00;;;26.20;66.80;26.10;101356.00;;;;5026690;28;20405;-72
2021/06/28 08:38:15;;;;;;;0.00;0.00;;;26.20;66.10;26.10;101349.00;;;;5030621;28;20639;-72
2021/06/28 08:40:41;;;;;;;0.00;0.00;;;26.20;65.70;26.30;101346.00;;;;5025508;28;20628;-72
2021/06/28 08:43:09;;;;;;;0.00;0.00;;;26.30;66.40;26.40;101328.00;;;;5027658;28;20522;-72
2021/06/28 08:45:38;;;;;;;0.00;0.00;;;26.50;66.60;26.60;101330.00;;;;5021507;28;20038;-72
2021/06/28 08:48:07;;;;;;;0.00;0.00;;;26.60;65.70;26.60;101333.00;;;;5020735;28;21711;-72
2021/06/28 08:50:35;;;;;;;0.00;0.00;;;26.70;65.90;26.70;101321.00;;;;5023532;28;20041;-72
2021/06/28 08:53:02;;;;;;;0.00;0.00;;;26.80;64.90;26.80;101327.00;;;;5024078;28;20041;-73
2021/06/28 08:55:28;;;;;;;0.00;0.00;;;26.90;65.20;26.80;101327.00;;;;5023801;28;20052;-73
2021/06/28 08:57:54;;;;;;;0.00;0.00;;;26.90;66.50;26.80;101317.00;;;;5024878;28;20049;-73
2021/06/28 09:00:21;;;;;;;0.00;0.00;;;27.00;64.20;27.00;101324.00;;;;5026129;28;20041;-73
2021/06/28 09:02:59;;;;;;;0.00;0.00;;;27.10;65.60;27.00;101317.00;;;;5026337;28;20049;-73
2021/06/28 09:05:29;;;;;;;0.00;0.00;;;27.20;62.40;27.10;101328.00;;;;5025077;28;20539;-73
2021/06/28 09:08:12;;;;;;;0.00;0.00;;;27.10;64.40;27.10;101330.00;;;;5026361;28;20037;-73
2021/06/28 09:10:44;;;;;;;0.00;0.00;;;27.20;65.40;27.00;101325.00;;;;5025229;28;20082;-73
2021/06/28 09:13:11;;;;;;;0.00;0.00;;;27.20;66.40;26.90;101331.00;;;;5025142;28;20049;-73
2021/06/28 09:15:48;;;;;;;0.00;0.00;;;27.10;64.90;26.80;101339.00;;;;5023238;28;20136;-73
2021/06/28 09:18:25;;;;;;;0.00;0.00;;;27.00;63.30;26.70;101344.00;;;;5026999;28;20045;-73
2021/06/28 09:21:06;;;;;;;0.00;0.00;;;27.00;65.40;26.60;101341.00;;;;5031946;28;20046;-73
2021/06/28 09:23:32;;;;;;;0.00;0.00;;;26.80;62.70;26.50;101343.00;;;;5005967;28;20037;-72
2021/06/28 09:26:00;;;;;;;0.00;0.00;;;26.80;64.40;26.40;101352.00;;;;5026843;28;20045;-74
2021/06/28 09:28:42;;;;;;;0.00;0.00;;;26.70;64.70;26.30;101349.00;;;;5022751;28;20049;-71
2021/06/28 09:31:15;;;;;;;0.00;0.00;;;26.70;63.90;26.20;101346.00;;;;5023845;28;20049;-72
2021/06/28 09:33:41;;;;;;;0.00;0.00;;;26.60;65.90;26.20;101350.00;;;;5022323;28;20038;-72
2021/06/28 09:36:48;;;;;;;0.00;0.00;;;26.50;65.30;26.10;101359.00;;;;5024907;28;20444;-72
2021/06/28 09:39:29;;;;;;;0.00;0.00;;;26.40;64.50;26.10;101366.00;;;;5008635;28;20518;-72
2021/06/28 09:42:13;;;;;;;0.00;0.00;;;26.50;65.90;26.10;101374.00;;;;5038398;28;20125;-72
2021/06/28 09:45:05;;;;;;;0.03;0.00;;;26.40;65.20;26.00;101381.00;;;;5029948;28;20045;-73
2021/06/28 09:47:33;;;;;;;0.00;0.00;;;26.40;65.80;26.00;101374.00;;;;5021432;28;20064;-72
2021/06/28 09:50:10;;;;;;;0.00;0.00;;;26.30;65.30;25.90;101376.00;;;;5021107;28;20152;-72
2021/06/28 09:52:52;;;;;;;0.00;0.00;;;26.20;63.80;25.70;101375.00;;;;5037556;28;20049;-72
2021/06/28 09:55:21;;;;;;;0.00;0.00;;;26.20;65.50;25.70;101379.00;;;;5020906;28;20488;-72
2021/06/28 09:58:04;;;;;;;0.03;0.03;;;26.10;65.40;25.70;101377.00;;;;5025611;28;20037;-72
2021/06/28 10:00:31;;;;;;;0.00;0.00;;;26.10;65.50;25.70;101373.00;;;;5024484;28;20038;-73
2021/06/28 10:02:58;;;;;;;0.00;0.00;;;26.00;66.20;25.80;101372.00;;;;5024742;28;20053;-73
2021/06/28 10:05:28;;;;;;;0.00;0.00;;;26.10;66.60;25.80;101372.00;;;;5022161;28;20045;-73
2021/06/28 10:07:55;;;;;;;0.30;0.00;;;26.10;67.20;25.70;101383.00;;;;5023940;28;20115;-72
2021/06/28 10:10:30;;;;;;;0.00;0.00;;;26.10;64.80;25.70;101384.00;;;;5023269;28;20041;-72
2021/06/28 10:12:56;;;;;;;0.00;0.00;;;26.30;66.50;25.70;101382.00;;;;5026202;28;20121;-72
2021/06/28 10:15:27;;;;;;;0.00;0.00;;;26.10;66.40;25.70;101390.00;;;;5023854;28;20127;-73
2021/06/28 10:17:53;;;;;;;2.72;0.47;;;26.10;66.80;25.70;101381.00;;;;5020172;28;20064;-71
2021/06/28 10:20:22;;;;;;;0.00;0.00;;;26.00;66.20;25.70;101388.00;;;;5025820;28;20049;-72
2021/06/28 10:22:50;;;;;;;0.32;0.32;;;26.00;65.50;25.60;101384.00;;;;5023421;28;20045;-72
2021/06/28 10:25:20;;;;;;;0.00;0.00;;;26.00;64.80;25.60;101384.00;;;;5020174;28;20045;-72
2021/06/28 10:27:47;;;;;;;0.00;0.00;;;26.00;66.10;25.60;101394.00;;;;5036737;28;20059;-71
2021/06/28 10:30:17;;;;;;;0.00;0.00;;;25.90;66.00;25.50;101389.00;;;;5024970;28;20052;-73
2021/06/28 10:32:48;;;;;;;0.00;0.00;;;25.90;66.30;25.40;101383.00;;;;5022675;28;20140;-71
2021/06/28 10:35:22;;;;;;;0.00;0.00;;;25.90;66.40;25.40;101386.00;;;;5025472;28;20049;-72
2021/06/28 10:37:48;;;;;;;0.00;0.00;;;25.80;65.90;25.30;101383.00;;;;5023917;28;20056;-71
2021/06/28 10:40:23;;;;;;;0.00;0.00;;;25.70;66.20;25.20;101378.00;;;;5002576;28;20048;-73
2021/06/28 10:42:56;;;;;;;0.00;0.00;;;25.60;66.50;25.20;101376.00;;;;5006553;28;20053;-72
2021/06/28 10:45:43;;;;;;;0.00;0.00;;;26.00;68.00;25.10;101384.00;;;;5016773;28;20484;-75
2021/06/28 10:48:19;;;;;;;0.00;0.00;;;25.60;66.60;25.10;101382.00;;;;5036627;28;20041;-72
2021/06/28 10:50:57;;;;;;;0.00;0.00;;;25.50;66.50;25.10;101384.00;;;;5023759;28;20132;-72
2021/06/28 10:53:36;;;;;;;0.03;0.03;;;25.50;66.60;25.10;101377.00;;;;5021802;28;20049;-72